Terminal Aerodrome Forecast
Issued by NWS

Home | Current Version | Previous Version | Text Only | Print | Product List | Glossary On
Versions: 1 2 3 4 5 6 7 8 9 10 11 12 13 14 15 16 17 18 19 20 21 22 23 24 25 26 27 28 29 30 31 32 33 34 35 36 37 38 39 40 41
000
FTAK31 PANC 021143
TAFAEN
TAF
PAEN 021143Z 0212/0312 02008KT P6SM BKN200
     FM021800 03015KT P6SM SCT050 OVC080
     FM030300 06018KT 6SM -RASN BKN050 OVC080=

USA.gov is the U.S. government's official web portal to all federal, state and local government web resources and services.